Terminal Aerodrome Forecast
Issued by NWS Cleveland, OH

Home | Current Version | Previous Version | Graphics & Text | Print | Product List | Glossary Off
Versions: 1 2 3 4 5 6 7 8 9 10 11 12 13 14 15 16 17 18

000
FTUS41 KCLE 281122
TAFTOL
TAF
KTOL 281122Z 2812/2912 19008KT P6SM BKN200
     FM282200 14007KT P6SM OVC080
     FM290500 08005KT 5SM -SHRA OVC010
     FM290900 02006KT P6SM OVC007=

USA.gov is the U.S. government's official web portal to all federal, state and local government web resources and services.